Time;durP1;ratioP1;P1;durP2;ratioP2;P2;SDS_P1;SDS_P2;PMS_P1;PMS_P2;Temp;Humidity;BMP_temperature;BMP_pressure;BME280_temperature;BME280_humidity;BME280_pressure;Samples;Min_cycle;Max_cycle;Signal;HPM_P1;HPM_P2
2022/07/30 00:01:00;;;;;;;8.50;6.10;;;;;;;;;;6251405;28;20045;-60
2022/07/30 00:04:00;;;;;;;7.83;6.03;;;;;;;;;;6251479;28;20053;-60
2022/07/30 00:07:03;;;;;;;8.13;5.60;;;;;;;;;;6254807;28;20145;-59
2022/07/30 00:10:04;;;;;;;8.70;5.40;;;;;;;;;;6253546;28;20598;-61
2022/07/30 00:13:05;;;;;;;8.87;5.70;;;;;;;;;;6249635;28;20187;-60
2022/07/30 00:16:06;;;;;;;8.27;5.57;;;;;;;;;;6249925;28;20393;-60
2022/07/30 00:19:07;;;;;;;7.50;5.33;;;;;;;;;;6250792;28;20582;-59
2022/07/30 00:22:07;;;;;;;11.30;5.60;;;;;;;;;;6252240;28;20049;-59
2022/07/30 00:25:08;;;;;;;9.40;5.60;;;;;;;;;;6248126;28;20059;-60
2022/07/30 00:28:09;;;;;;;7.37;4.80;;;;;;;;;;6253476;28;20135;-60
2022/07/30 00:31:09;;;;;;;8.70;4.90;;;;;;;;;;6251106;28;20048;-60
2022/07/30 00:34:11;;;;;;;7.50;5.00;;;;;;;;;;6250629;28;20037;-60
2022/07/30 00:37:12;;;;;;;8.50;5.85;;;;;;;;;;6251281;28;20093;-60
2022/07/30 00:40:13;;;;;;;7.60;5.63;;;;;;;;;;6251297;28;20636;-60
2022/07/30 00:43:15;;;;;;;8.63;5.87;;;;;;;;;;6247293;28;20059;-60
2022/07/30 00:46:16;;;;;;;8.52;6.03;;;;;;;;;;6249398;28;21461;-61
2022/07/30 00:49:16;;;;;;;8.63;5.60;;;;;;;;;;6249953;28;20533;-59
2022/07/30 00:52:17;;;;;;;7.03;5.37;;;;;;;;;;6248493;28;20055;-60
2022/07/30 00:55:18;;;;;;;7.37;5.37;;;;;;;;;;6251880;28;20053;-59
2022/07/30 00:58:18;;;;;;;9.10;6.10;;;;;;;;;;6251776;28;20052;-59
2022/07/30 01:01:19;;;;;;;10.80;5.40;;;;;;;;;;6251946;28;20053;-59
2022/07/30 01:04:20;;;;;;;7.55;5.47;;;;;;;;;;6248286;28;20055;-59
2022/07/30 01:07:21;;;;;;;9.43;6.03;;;;;;;;;;6250955;28;20064;-60
2022/07/30 01:10:22;;;;;;;8.00;6.00;;;;;;;;;;6248872;28;20510;-60
2022/07/30 01:13:23;;;;;;;7.97;5.17;;;;;;;;;;6247937;28;20049;-60
2022/07/30 01:16:23;;;;;;;6.93;5.53;;;;;;;;;;6249719;28;20083;-60
2022/07/30 01:19:48;;;;;;;7.33;5.37;;;;;;;;;;6252247;28;20091;-60
2022/07/30 01:23:00;;;;;;;8.45;6.03;;;;;;;;;;6245838;28;20056;-60
2022/07/30 01:26:07;;;;;;;8.50;6.47;;;;;;;;;;6250992;28;20526;-60
2022/07/30 01:29:09;;;;;;;9.40;6.10;;;;;;;;;;6255023;28;20055;-60
2022/07/30 01:32:12;;;;;;;10.07;6.43;;;;;;;;;;6257587;28;20051;-59
2022/07/30 01:35:14;;;;;;;9.48;6.18;;;;;;;;;;6253613;28;20769;-59
2022/07/30 01:38:20;;;;;;;8.43;6.25;;;;;;;;;;6256516;28;20048;-60
2022/07/30 01:41:22;;;;;;;11.13;6.32;;;;;;;;;;6259531;28;20057;-61
2022/07/30 01:44:25;;;;;;;10.73;6.75;;;;;;;;;;6252067;28;20065;-60
2022/07/30 01:47:27;;;;;;;9.10;6.85;;;;;;;;;;6256590;28;20098;-62
2022/07/30 01:50:30;;;;;;;10.38;7.10;;;;;;;;;;6270621;28;20049;-60
2022/07/30 01:53:35;;;;;;;10.70;7.10;;;;;;;;;;6284491;28;20049;-61
2022/07/30 01:56:37;;;;;;;9.80;7.18;;;;;;;;;;6292222;28;20418;-61
2022/07/30 01:59:39;;;;;;;11.27;7.70;;;;;;;;;;6287667;28;20074;-60
2022/07/30 02:02:40;;;;;;;;;;;;;;;;;;6292820;28;20047;-61
2022/07/30 02:05:44;;;;;;;10.10;7.38;;;;;;;;;;6283906;28;19920;-60
2022/07/30 02:08:52;;;;;;;10.77;6.65;;;;;;;;;;6287779;28;20046;-61
2022/07/30 02:15:22;;;;;;;8.30;6.35;;;;;;;;;;6285721;28;20040;-60
2022/07/30 02:18:38;;;;;;;10.02;6.70;;;;;;;;;;6289728;28;20049;-61
2022/07/30 02:21:43;;;;;;;8.90;6.13;;;;;;;;;;6285307;28;20044;-61
2022/07/30 02:24:44;;;;;;;10.88;6.50;;;;;;;;;;6289562;28;20052;-61
2022/07/30 02:27:51;;;;;;;9.05;6.53;;;;;;;;;;6283923;28;20488;-60
2022/07/30 02:30:58;;;;;;;9.57;6.65;;;;;;;;;;6261875;28;20091;-60
2022/07/30 02:34:02;;;;;;;11.18;7.28;;;;;;;;;;6269950;28;20073;-60
2022/07/30 02:37:05;;;;;;;9.85;6.85;;;;;;;;;;6268454;28;20064;-62
2022/07/30 02:40:07;;;;;;;9.70;6.95;;;;;;;;;;6264766;28;20609;-61
2022/07/30 02:43:09;;;;;;;9.50;7.30;;;;;;;;;;6270753;28;20040;-60
2022/07/30 02:46:11;;;;;;;;;;;;;;;;;;6269333;28;20049;-61
2022/07/30 02:49:14;;;;;;;10.90;6.60;;;;;;;;;;6268028;28;20054;-60
2022/07/30 02:52:16;;;;;;;10.15;6.57;;;;;;;;;;6269604;28;20048;-60
2022/07/30 02:55:17;;;;;;;8.80;6.68;;;;;;;;;;6265625;28;20063;-60
2022/07/30 02:58:21;;;;;;;10.33;6.90;;;;;;;;;;6265892;28;20070;-60
2022/07/30 03:01:23;;;;;;;11.57;7.20;;;;;;;;;;6264466;28;20103;-61
2022/07/30 03:04:25;;;;;;;11.45;7.72;;;;;;;;;;6267098;28;20151;-61
2022/07/30 03:07:26;;;;;;;10.50;7.20;;;;;;;;;;6265556;28;20056;-61
2022/07/30 03:10:28;;;;;;;9.65;7.13;;;;;;;;;;6270362;28;20084;-61
2022/07/30 03:13:28;;;;;;;;;;;;;;;;;;6269831;28;20045;-61
2022/07/30 03:16:33;;;;;;;9.80;7.38;;;;;;;;;;6266532;28;20260;-61
2022/07/30 03:19:36;;;;;;;10.35;7.35;;;;;;;;;;6268014;28;20072;-60
2022/07/30 03:22:50;;;;;;;11.10;6.95;;;;;;;;;;6265591;28;20041;-60
2022/07/30 03:25:58;;;;;;;10.13;7.18;;;;;;;;;;6269550;28;20041;-61
2022/07/30 03:29:00;;;;;;;10.02;7.22;;;;;;;;;;6269231;28;20163;-60
2022/07/30 03:32:04;;;;;;;11.27;7.68;;;;;;;;;;6257596;28;20043;-60
2022/07/30 03:35:07;;;;;;;11.90;7.18;;;;;;;;;;6265794;28;20056;-60
2022/07/30 03:38:12;;;;;;;9.35;7.15;;;;;;;;;;6269128;28;20170;-61
2022/07/30 03:41:14;;;;;;;10.98;7.25;;;;;;;;;;6264850;28;20045;-61
2022/07/30 03:44:14;;;;;;;10.93;6.78;;;;;;;;;;6265715;28;20109;-60
2022/07/30 03:47:16;;;;;;;9.63;6.90;;;;;;;;;;6268707;28;20520;-61
2022/07/30 03:50:16;;;;;;;11.38;7.53;;;;;;;;;;6262035;28;20048;-61
2022/07/30 03:53:18;;;;;;;11.30;8.43;;;;;;;;;;6263153;28;20545;-61
2022/07/30 03:56:19;;;;;;;13.38;7.20;;;;;;;;;;6263054;28;20072;-60
2022/07/30 03:59:20;;;;;;;12.15;8.05;;;;;;;;;;6270170;28;20046;-61
2022/07/30 04:02:21;;;;;;;10.03;7.90;;;;;;;;;;6264695;28;20037;-60
2022/07/30 04:05:22;;;;;;;11.10;8.25;;;;;;;;;;6263609;28;20114;-60
2022/07/30 04:08:23;;;;;;;10.47;7.47;;;;;;;;;;6267260;28;20051;-61
2022/07/30 04:11:23;;;;;;;13.27;7.43;;;;;;;;;;6266032;28;20071;-61
2022/07/30 04:14:24;;;;;;;11.50;7.43;;;;;;;;;;6264557;28;20551;-61
2022/07/30 04:17:35;;;;;;;9.83;7.00;;;;;;;;;;6266933;28;20048;-60
2022/07/30 04:20:40;;;;;;;11.13;7.15;;;;;;;;;;6263363;28;20071;-60
2022/07/30 04:23:42;;;;;;;9.70;6.70;;;;;;;;;;6268237;28;20131;-61
2022/07/30 04:26:44;;;;;;;10.73;7.63;;;;;;;;;;6264483;28;20480;-61
2022/07/30 04:29:45;;;;;;;11.52;7.53;;;;;;;;;;6265089;28;21189;-61
2022/07/30 04:32:46;;;;;;;12.77;8.05;;;;;;;;;;6270222;28;20044;-62
2022/07/30 04:35:47;;;;;;;10.60;7.63;;;;;;;;;;6263492;28;20049;-61
2022/07/30 04:38:47;;;;;;;11.40;7.53;;;;;;;;;;6266271;28;20051;-60
2022/07/30 04:41:48;;;;;;;11.97;8.37;;;;;;;;;;6268025;28;20045;-61
2022/07/30 04:44:48;;;;;;;12.33;8.17;;;;;;;;;;6263683;28;20053;-60
2022/07/30 04:47:52;;;;;;;10.20;7.63;;;;;;;;;;6266185;28;20539;-60
2022/07/30 04:50:58;;;;;;;13.68;8.02;;;;;;;;;;6260580;28;20045;-61
2022/07/30 04:53:59;;;;;;;9.80;7.85;;;;;;;;;;6265744;28;20045;-61
2022/07/30 04:56:59;;;;;;;13.33;8.30;;;;;;;;;;6264652;28;20044;-60
2022/07/30 05:00:00;;;;;;;12.70;8.83;;;;;;;;;;6268728;28;20075;-62
2022/07/30 05:03:04;;;;;;;11.93;8.37;;;;;;;;;;6269448;28;20055;-61
2022/07/30 05:06:05;;;;;;;14.45;8.60;;;;;;;;;;6266522;28;22016;-60
2022/07/30 05:09:07;;;;;;;11.77;8.65;;;;;;;;;;6276281;28;20045;-61
2022/07/30 05:12:07;;;;;;;14.02;8.30;;;;;;;;;;6270518;28;20053;-61
2022/07/30 05:15:09;;;;;;;13.07;8.27;;;;;;;;;;6269832;28;20051;-60
2022/07/30 05:18:11;;;;;;;12.02;8.48;;;;;;;;;;6273095;28;20045;-61
2022/07/30 05:21:11;;;;;;;;;;;;;;;;;;6268745;28;20187;-61
2022/07/30 05:24:12;;;;;;;11.57;8.85;;;;;;;;;;6268253;28;20323;-60
2022/07/30 05:27:13;;;;;;;15.20;8.33;;;;;;;;;;6269715;28;20040;-61
2022/07/30 05:30:13;;;;;;;13.60;8.73;;;;;;;;;;6271828;28;20048;-60
2022/07/30 05:33:14;;;;;;;13.10;9.83;;;;;;;;;;6270980;28;20065;-60
2022/07/30 05:36:15;;;;;;;13.63;9.00;;;;;;;;;;6266950;28;20095;-60
2022/07/30 05:39:15;;;;;;;14.50;8.93;;;;;;;;;;6268035;28;20045;-60
2022/07/30 05:42:16;;;;;;;16.83;13.37;;;;;;;;;;6271501;28;20146;-61
2022/07/30 05:45:16;;;;;;;15.17;12.00;;;;;;;;;;6269910;28;20070;-61
2022/07/30 05:48:17;;;;;;;12.23;8.97;;;;;;;;;;6268507;28;20052;-61
2022/07/30 05:51:19;;;;;;;11.80;9.03;;;;;;;;;;6270786;28;20060;-61
2022/07/30 05:54:20;;;;;;;15.48;8.82;;;;;;;;;;6269031;28;20140;-60
2022/07/30 05:57:20;;;;;;;13.00;9.07;;;;;;;;;;6268952;28;20047;-61
2022/07/30 06:00:21;;;;;;;15.77;9.70;;;;;;;;;;6266372;28;20048;-61
2022/07/30 06:03:22;;;;;;;15.37;9.67;;;;;;;;;;6268052;28;20075;-60
2022/07/30 06:06:22;;;;;;;14.60;9.57;;;;;;;;;;6269190;28;20056;-60
2022/07/30 06:09:23;;;;;;;14.00;9.97;;;;;;;;;;6276397;28;20460;-61
2022/07/30 06:12:25;;;;;;;15.20;9.90;;;;;;;;;;6267300;28;20554;-60
2022/07/30 06:15:26;;;;;;;13.38;9.63;;;;;;;;;;6270688;28;20048;-61
2022/07/30 06:18:26;;;;;;;14.85;9.77;;;;;;;;;;6268399;28;20123;-60
2022/07/30 06:21:27;;;;;;;14.77;9.77;;;;;;;;;;6272177;28;20431;-61
2022/07/30 06:24:27;;;;;;;14.00;9.23;;;;;;;;;;6269633;28;20049;-60
2022/07/30 06:27:28;;;;;;;14.23;10.20;;;;;;;;;;6270792;28;20049;-61
2022/07/30 06:30:29;;;;;;;13.20;9.37;;;;;;;;;;6269673;28;20040;-61
2022/07/30 06:33:29;;;;;;;14.87;9.63;;;;;;;;;;6264452;28;20045;-60
2022/07/30 06:36:30;;;;;;;16.43;9.80;;;;;;;;;;6267846;28;20063;-60
2022/07/30 06:39:30;;;;;;;22.00;15.90;;;;;;;;;;6282544;28;20540;-61
2022/07/30 06:42:31;;;;;;;15.63;11.27;;;;;;;;;;6291052;28;20085;-61
2022/07/30 06:45:31;;;;;;;24.33;17.97;;;;;;;;;;6288821;28;20127;-60
2022/07/30 06:48:32;;;;;;;13.73;9.20;;;;;;;;;;6287518;28;20064;-60
2022/07/30 06:51:32;;;;;;;14.40;9.80;;;;;;;;;;6290313;28;20121;-60
2022/07/30 06:54:33;;;;;;;15.70;10.53;;;;;;;;;;6290334;28;20059;-60
2022/07/30 06:57:34;;;;;;;12.13;9.17;;;;;;;;;;6286254;28;20124;-61
2022/07/30 07:00:34;;;;;;;28.73;22.57;;;;;;;;;;6288820;28;20089;-61
2022/07/30 07:03:35;;;;;;;13.23;10.13;;;;;;;;;;6284377;28;20123;-60
2022/07/30 07:06:36;;;;;;;10.90;8.70;;;;;;;;;;6292347;28;20049;-60
2022/07/30 07:09:36;;;;;;;25.50;16.90;;;;;;;;;;6290465;28;20044;-61
2022/07/30 07:12:37;;;;;;;21.90;14.87;;;;;;;;;;6287027;28;20051;-61
2022/07/30 07:15:38;;;;;;;15.67;11.87;;;;;;;;;;6288361;28;20053;-61
2022/07/30 07:18:38;;;;;;;12.93;9.20;;;;;;;;;;6288148;28;20048;-61
2022/07/30 07:21:39;;;;;;;26.37;19.13;;;;;;;;;;6281063;28;20075;-60
2022/07/30 07:24:39;;;;;;;19.30;13.97;;;;;;;;;;6281711;28;20040;-61
2022/07/30 07:27:40;;;;;;;13.90;10.53;;;;;;;;;;6285083;28;20045;-60
2022/07/30 07:30:40;;;;;;;13.53;10.43;;;;;;;;;;6277844;28;20476;-61
2022/07/30 07:33:41;;;;;;;18.20;12.33;;;;;;;;;;6282618;28;20478;-61
2022/07/30 07:36:42;;;;;;;14.23;9.97;;;;;;;;;;6288140;28;20523;-61
2022/07/30 07:39:42;;;;;;;30.07;21.47;;;;;;;;;;6290299;28;20117;-61
2022/07/30 07:42:43;;;;;;;25.93;17.07;;;;;;;;;;6268209;28;20052;-61
2022/07/30 07:45:47;;;;;;;13.80;10.93;;;;;;;;;;6266250;28;20102;-61
2022/07/30 07:48:47;;;;;;;12.20;8.90;;;;;;;;;;6264070;28;20191;-61
2022/07/30 07:51:48;;;;;;;10.77;7.60;;;;;;;;;;6266688;28;20049;-61
2022/07/30 07:54:48;;;;;;;11.10;8.57;;;;;;;;;;6265370;28;20057;-61
2022/07/30 07:57:49;;;;;;;12.70;9.20;;;;;;;;;;6258762;28;20051;-61
2022/07/30 08:00:50;;;;;;;15.53;8.63;;;;;;;;;;6251338;28;20052;-61
2022/07/30 08:03:50;;;;;;;11.17;8.07;;;;;;;;;;6252886;28;20052;-62
2022/07/30 08:06:51;;;;;;;11.63;8.50;;;;;;;;;;6256971;28;20056;-61
2022/07/30 08:09:51;;;;;;;13.00;8.60;;;;;;;;;;6263973;28;20059;-61
2022/07/30 08:12:52;;;;;;;13.10;8.20;;;;;;;;;;6250619;28;20499;-61
2022/07/30 08:15:52;;;;;;;15.43;11.70;;;;;;;;;;6253078;28;20052;-60
2022/07/30 08:18:53;;;;;;;20.55;13.68;;;;;;;;;;6262324;28;20064;-60
2022/07/30 08:21:54;;;;;;;16.93;12.23;;;;;;;;;;6265260;28;20052;-61
2022/07/30 08:24:55;;;;;;;15.40;11.20;;;;;;;;;;6263960;28;20059;-60
2022/07/30 08:27:55;;;;;;;12.67;9.30;;;;;;;;;;6263868;28;20053;-61
2022/07/30 08:30:56;;;;;;;13.67;8.87;;;;;;;;;;6262487;28;20171;-60
2022/07/30 08:33:57;;;;;;;12.93;9.30;;;;;;;;;;6261649;28;20399;-61
2022/07/30 08:36:57;;;;;;;14.47;11.47;;;;;;;;;;6271530;28;20068;-61
2022/07/30 08:39:58;;;;;;;13.43;8.83;;;;;;;;;;6267292;28;20057;-61
2022/07/30 08:43:01;;;;;;;12.70;10.50;;;;;;;;;;6262542;28;20048;-61
2022/07/30 08:46:04;;;;;;;12.43;9.27;;;;;;;;;;6265266;28;20044;-62
2022/07/30 08:49:06;;;;;;;14.50;10.68;;;;;;;;;;6266431;28;20106;-60
2022/07/30 08:52:09;;;;;;;10.32;8.63;;;;;;;;;;6262343;28;20457;-61
2022/07/30 08:55:10;;;;;;;11.23;8.32;;;;;;;;;;6261559;28;20484;-61
2022/07/30 08:58:28;;;;;;;12.33;8.07;;;;;;;;;;6266465;28;20049;-61
2022/07/30 09:01:29;;;;;;;11.52;8.20;;;;;;;;;;6265401;28;20076;-61
2022/07/30 09:04:29;;;;;;;10.73;8.47;;;;;;;;;;6262813;28;20053;-61
2022/07/30 09:07:32;;;;;;;10.70;8.00;;;;;;;;;;6262742;28;20080;-61
2022/07/30 09:10:33;;;;;;;10.57;9.35;;;;;;;;;;6262052;28;20061;-60
2022/07/30 09:13:40;;;;;;;10.87;8.57;;;;;;;;;;6267764;28;20116;-61
2022/07/30 09:16:42;;;;;;;10.80;8.50;;;;;;;;;;6261960;28;20045;-61
2022/07/30 09:20:00;;;;;;;12.23;8.18;;;;;;;;;;6267513;28;20052;-60
2022/07/30 09:23:03;;;;;;;11.88;8.52;;;;;;;;;;6264809;28;20053;-59
2022/07/30 09:26:04;;;;;;;14.38;10.27;;;;;;;;;;6264021;28;20110;-61
2022/07/30 09:29:15;;;;;;;13.13;9.80;;;;;;;;;;6260883;28;20049;-61
2022/07/30 09:32:16;;;;;;;10.82;8.55;;;;;;;;;;6264437;28;20049;-62
2022/07/30 09:35:17;;;;;;;10.20;7.97;;;;;;;;;;6260886;28;20404;-61
2022/07/30 09:38:18;;;;;;;10.98;8.45;;;;;;;;;;6266885;28;20075;-61
2022/07/30 09:41:34;;;;;;;10.88;8.10;;;;;;;;;;6266950;28;20052;-58
2022/07/30 09:44:35;;;;;;;12.13;7.78;;;;;;;;;;6269121;28;20131;-61
2022/07/30 09:47:39;;;;;;;9.83;7.97;;;;;;;;;;6265503;28;20419;-61
2022/07/30 09:50:47;;;;;;;10.13;8.68;;;;;;;;;;6269974;28;20041;-61
2022/07/30 09:53:55;;;;;;;11.30;8.23;;;;;;;;;;6270116;28;20045;-61
2022/07/30 09:57:06;;;;;;;12.38;8.45;;;;;;;;;;6268178;28;20148;-61
2022/07/30 10:00:36;;;;;;;8.65;7.07;;;;;;;;;;6271528;28;20509;-61
2022/07/30 10:03:41;;;;;;;7.80;6.47;;;;;;;;;;6264200;28;20735;-59
2022/07/30 10:06:42;;;;;;;12.63;7.38;;;;;;;;;;6271019;28;20080;-61
2022/07/30 10:09:44;;;;;;;9.90;7.75;;;;;;;;;;6269569;28;20144;-61
2022/07/30 10:12:45;;;;;;;9.93;7.50;;;;;;;;;;6268810;28;20045;-61
2022/07/30 10:15:48;;;;;;;;;;;;;;;;;;6270680;28;20045;-60
2022/07/30 10:18:48;;;;;;;8.57;6.80;;;;;;;;;;6270302;28;19924;-60
2022/07/30 10:21:56;;;;;;;12.27;8.67;;;;;;;;;;6266865;28;20141;-61
2022/07/30 10:24:57;;;;;;;10.27;6.82;;;;;;;;;;6263978;28;20492;-62
2022/07/30 10:27:58;;;;;;;8.67;6.97;;;;;;;;;;6266720;28;20059;-61
2022/07/30 10:30:59;;;;;;;;;;;;;;;;;;6266822;28;20503;-61
2022/07/30 10:34:00;;;;;;;8.87;7.07;;;;;;;;;;6271378;28;19924;-62
2022/07/30 10:37:04;;;;;;;9.07;7.30;;;;;;;;;;6267988;28;20075;-61
2022/07/30 10:40:17;;;;;;;9.02;7.32;;;;;;;;;;6269503;28;20136;-61
2022/07/30 10:43:46;;;;;;;9.60;7.85;;;;;;;;;;6259610;28;20057;-61
2022/07/30 10:46:54;;;;;;;10.27;7.30;;;;;;;;;;6267084;28;20069;-61
2022/07/30 10:50:19;;;;;;;8.98;6.93;;;;;;;;;;6269381;28;20076;-61
2022/07/30 10:53:39;;;;;;;11.25;7.50;;;;;;;;;;6261387;28;20489;-61
2022/07/30 10:56:39;;;;;;;8.48;7.47;;;;;;;;;;6267670;28;20045;-62
2022/07/30 10:59:57;;;;;;;9.82;7.43;;;;;;;;;;6265108;28;20049;-61
2022/07/30 11:03:16;;;;;;;9.65;7.95;;;;;;;;;;6266159;28;20092;-61
2022/07/30 11:06:16;;;;;;;11.85;8.10;;;;;;;;;;6263123;28;20174;-61
2022/07/30 11:09:38;;;;;;;9.83;8.23;;;;;;;;;;6265904;28;20134;-61
2022/07/30 11:12:42;;;;;;;10.15;8.20;;;;;;;;;;6267427;28;20049;-61
2022/07/30 11:15:59;;;;;;;12.02;8.38;;;;;;;;;;6267443;28;20088;-61
2022/07/30 11:19:04;;;;;;;10.20;8.20;;;;;;;;;;6270781;28;20111;-61
2022/07/30 11:22:24;;;;;;;9.77;8.20;;;;;;;;;;6262456;28;20046;-62
2022/07/30 11:25:27;;;;;;;13.60;9.23;;;;;;;;;;6266064;28;20052;-58
2022/07/30 11:28:39;;;;;;;13.18;9.02;;;;;;;;;;6268574;28;20045;-59
2022/07/30 11:31:41;;;;;;;13.90;9.27;;;;;;;;;;6270886;28;20044;-60
2022/07/30 11:34:41;;;;;;;13.45;10.25;;;;;;;;;;6265078;28;20045;-59
2022/07/30 11:38:05;;;;;;;15.13;9.83;;;;;;;;;;6271287;28;20176;-60
2022/07/30 11:41:06;;;;;;;13.20;10.60;;;;;;;;;;6267372;28;20059;-59
2022/07/30 11:44:27;;;;;;;14.87;11.17;;;;;;;;;;6266665;28;20072;-59
2022/07/30 11:47:27;;;;;;;17.48;12.57;;;;;;;;;;6270144;28;21500;-59
2022/07/30 11:50:31;;;;;;;17.33;13.03;;;;;;;;;;6266074;28;20057;-59
2022/07/30 11:53:31;;;;;;;19.70;13.68;;;;;;;;;;6266926;28;20049;-59
2022/07/30 11:56:32;;;;;;;18.50;13.47;;;;;;;;;;6266210;28;20171;-59
2022/07/30 11:59:52;;;;;;;21.27;14.87;;;;;;;;;;6268153;28;20128;-59
2022/07/30 12:02:52;;;;;;;19.25;14.75;;;;;;;;;;6265400;28;21133;-58
2022/07/30 12:05:54;;;;;;;19.07;15.17;;;;;;;;;;6266404;28;20045;-58
2022/07/30 12:08:55;;;;;;;23.85;15.68;;;;;;;;;;6266280;28;20049;-58
2022/07/30 12:11:56;;;;;;;21.53;15.07;;;;;;;;;;6265722;28;20056;-58
2022/07/30 12:14:57;;;;;;;21.95;14.98;;;;;;;;;;6265848;28;20571;-58
2022/07/30 12:17:59;;;;;;;21.10;14.77;;;;;;;;;;6262171;28;20033;-58
2022/07/30 12:21:03;;;;;;;21.60;16.70;;;;;;;;;;6264232;28;20114;-58
2022/07/30 12:24:12;;;;;;;19.15;15.45;;;;;;;;;;6265031;28;20439;-58
2022/07/30 12:27:13;;;;;;;22.40;16.70;;;;;;;;;;6265556;28;20159;-58
2022/07/30 12:30:15;;;;;;;23.00;17.10;;;;;;;;;;6265418;28;20048;-58
2022/07/30 12:33:16;;;;;;;21.35;15.93;;;;;;;;;;6272136;28;20059;-58
2022/07/30 12:36:31;;;;;;;23.97;17.70;;;;;;;;;;6264807;28;20052;-58
2022/07/30 12:39:32;;;;;;;23.58;18.67;;;;;;;;;;6260828;28;20045;-58
2022/07/30 12:42:32;;;;;;;29.13;20.77;;;;;;;;;;6264741;28;20047;-58
2022/07/30 12:45:33;;;;;;;29.13;20.50;;;;;;;;;;6260966;28;20099;-58
2022/07/30 12:48:34;;;;;;;28.87;21.50;;;;;;;;;;6260558;28;20051;-58
2022/07/30 12:51:48;;;;;;;32.17;22.13;;;;;;;;;;6254917;28;20081;-58
2022/07/30 12:55:02;;;;;;;30.48;22.50;;;;;;;;;;6265199;28;20875;-58
2022/07/30 12:58:05;;;;;;;30.35;22.20;;;;;;;;;;6264011;28;20175;-58
2022/07/30 13:01:07;;;;;;;31.45;23.48;;;;;;;;;;6263463;28;20052;-58
2022/07/30 13:04:08;;;;;;;33.80;25.25;;;;;;;;;;6267191;28;20048;-58
2022/07/30 13:07:10;;;;;;;35.38;24.90;;;;;;;;;;6264731;28;20126;-59
2022/07/30 13:10:12;;;;;;;34.47;25.48;;;;;;;;;;6265777;28;20127;-59
2022/07/30 13:13:12;;;;;;;34.35;25.20;;;;;;;;;;6261396;28;20136;-59
2022/07/30 13:16:13;;;;;;;35.13;24.10;;;;;;;;;;6264963;28;20048;-59
2022/07/30 13:19:14;;;;;;;35.58;25.70;;;;;;;;;;6262391;28;20037;-59
2022/07/30 13:22:14;;;;;;;32.83;24.40;;;;;;;;;;6265768;28;20089;-58
2022/07/30 13:25:15;;;;;;;34.80;25.00;;;;;;;;;;6274482;28;20491;-56
2022/07/30 13:28:16;;;;;;;37.00;25.63;;;;;;;;;;6264721;28;20138;-58
2022/07/30 13:31:17;;;;;;;33.27;24.47;;;;;;;;;;6272378;28;20118;-58
2022/07/30 13:34:17;;;;;;;29.75;21.77;;;;;;;;;;6268836;28;20122;-59
2022/07/30 13:37:18;;;;;;;32.70;23.37;;;;;;;;;;6269196;28;20119;-57
2022/07/30 13:40:18;;;;;;;32.43;23.20;;;;;;;;;;6265839;28;20136;-58
2022/07/30 13:43:21;;;;;;;29.73;20.50;;;;;;;;;;6269438;28;20051;-58
2022/07/30 13:46:22;;;;;;;29.13;21.60;;;;;;;;;;6272723;28;20140;-57
2022/07/30 13:49:22;;;;;;;28.80;21.87;;;;;;;;;;6267331;28;20057;-59
2022/07/30 13:52:23;;;;;;;28.93;19.50;;;;;;;;;;6267327;28;20135;-58
2022/07/30 13:55:23;;;;;;;22.10;16.50;;;;;;;;;;6264890;28;20502;-58
2022/07/30 13:58:24;;;;;;;22.10;16.70;;;;;;;;;;6269838;28;20048;-58
2022/07/30 14:01:25;;;;;;;24.13;17.03;;;;;;;;;;6270442;28;20045;-58
2022/07/30 14:04:25;;;;;;;21.53;16.80;;;;;;;;;;6273156;28;20048;-58
2022/07/30 14:07:26;;;;;;;26.00;19.53;;;;;;;;;;6269697;28;20060;-58
2022/07/30 14:10:27;;;;;;;21.73;17.00;;;;;;;;;;6269575;28;20052;-59
2022/07/30 14:13:27;;;;;;;21.40;16.87;;;;;;;;;;6268446;28;20415;-58
2022/07/30 14:16:28;;;;;;;20.53;15.93;;;;;;;;;;6268906;28;20061;-59
2022/07/30 14:19:28;;;;;;;20.27;15.40;;;;;;;;;;6263418;28;20060;-58
2022/07/30 14:22:29;;;;;;;21.60;17.07;;;;;;;;;;6267776;28;20080;-59
2022/07/30 14:25:29;;;;;;;23.07;17.07;;;;;;;;;;6269434;28;20111;-59
2022/07/30 14:28:30;;;;;;;21.63;17.40;;;;;;;;;;6265135;28;20057;-59
2022/07/30 14:31:31;;;;;;;20.47;16.13;;;;;;;;;;6262111;28;20061;-59
2022/07/30 14:34:31;;;;;;;21.50;16.70;;;;;;;;;;6266625;28;20055;-58
2022/07/30 14:37:33;;;;;;;20.90;16.17;;;;;;;;;;6264189;28;21294;-59
2022/07/30 14:40:33;;;;;;;;;;;;;;;;;;6261451;28;20048;-58
2022/07/30 14:43:34;;;;;;;20.10;15.35;;;;;;;;;;6264779;28;19928;-57
2022/07/30 14:46:35;;;;;;;17.13;13.97;;;;;;;;;;6264171;28;20091;-58
2022/07/30 14:49:35;;;;;;;20.40;15.97;;;;;;;;;;6265216;28;20053;-58
2022/07/30 14:52:37;;;;;;;19.33;16.13;;;;;;;;;;6268379;28;20053;-59
2022/07/30 14:55:37;;;;;;;19.42;15.07;;;;;;;;;;6262965;28;20081;-58
2022/07/30 14:58:38;;;;;;;19.23;15.80;;;;;;;;;;6261621;28;20052;-58
2022/07/30 15:01:40;;;;;;;21.13;16.00;;;;;;;;;;6262893;28;20098;-58
2022/07/30 15:04:41;;;;;;;25.48;18.92;;;;;;;;;;6267935;28;20099;-58
2022/07/30 15:07:41;;;;;;;35.77;28.17;;;;;;;;;;6262867;28;20049;-59
2022/07/30 15:10:42;;;;;;;21.47;16.97;;;;;;;;;;6259705;28;20048;-59
2022/07/30 15:13:42;;;;;;;23.30;17.60;;;;;;;;;;6266633;28;20052;-58
2022/07/30 15:16:43;;;;;;;23.47;17.77;;;;;;;;;;6267034;28;20049;-58
2022/07/30 15:19:44;;;;;;;24.67;19.27;;;;;;;;;;6265457;28;20050;-57
2022/07/30 15:22:44;;;;;;;24.03;16.60;;;;;;;;;;6263565;28;20049;-57
2022/07/30 15:25:47;;;;;;;26.90;20.50;;;;;;;;;;6267842;28;20050;-58
2022/07/30 15:28:48;;;;;;;23.05;17.52;;;;;;;;;;6264976;28;20041;-59
2022/07/30 15:31:49;;;;;;;21.63;17.60;;;;;;;;;;6261042;28;20041;-58
2022/07/30 15:34:50;;;;;;;;;;;;;;;;;;6266683;28;20865;-59
2022/07/30 15:37:50;;;;;;;19.77;16.35;;;;;;;;;;6266813;28;19925;-59
2022/07/30 15:40:51;;;;;;;23.43;17.40;;;;;;;;;;6259728;28;20061;-59
2022/07/30 15:43:51;;;;;;;23.23;18.47;;;;;;;;;;6254945;28;20056;-58
2022/07/30 15:46:52;;;;;;;23.83;17.53;;;;;;;;;;6262470;28;20144;-58
2022/07/30 15:49:53;;;;;;;21.70;16.80;;;;;;;;;;6260230;28;20049;-59
2022/07/30 15:52:54;;;;;;;19.80;15.57;;;;;;;;;;6259789;28;20142;-58
2022/07/30 15:55:55;;;;;;;;;;;;;;;;;;6265708;28;20048;-58
2022/07/30 15:58:56;;;;;;;23.35;16.80;;;;;;;;;;6261127;28;19972;-58
2022/07/30 16:01:57;;;;;;;22.53;16.63;;;;;;;;;;6266467;28;20477;-58
2022/07/30 16:04:58;;;;;;;24.80;17.83;;;;;;;;;;6265139;28;20305;-58
2022/07/30 16:07:58;;;;;;;24.77;17.93;;;;;;;;;;6262571;28;20053;-59
2022/07/30 16:11:02;;;;;;;23.43;17.57;;;;;;;;;;6263146;28;20049;-58
2022/07/30 16:14:03;;;;;;;24.02;18.55;;;;;;;;;;6262591;28;20053;-58
2022/07/30 16:17:03;;;;;;;24.77;18.17;;;;;;;;;;6262718;28;20119;-58
2022/07/30 16:20:04;;;;;;;26.60;18.90;;;;;;;;;;6261121;28;20052;-58
2022/07/30 16:23:05;;;;;;;26.67;19.25;;;;;;;;;;6261248;28;20052;-58
2022/07/30 16:26:06;;;;;;;23.53;17.83;;;;;;;;;;6266112;28;20095;-59
2022/07/30 16:29:06;;;;;;;26.70;19.80;;;;;;;;;;6266937;28;20143;-58
2022/07/30 16:32:07;;;;;;;33.53;23.40;;;;;;;;;;6266860;28;21078;-57
2022/07/30 16:35:08;;;;;;;34.73;27.33;;;;;;;;;;6273843;28;20153;-57
2022/07/30 16:38:08;;;;;;;30.07;22.23;;;;;;;;;;6265109;28;20044;-57
2022/07/30 16:41:09;;;;;;;25.43;18.37;;;;;;;;;;6261556;28;20053;-58
2022/07/30 16:44:10;;;;;;;26.77;19.40;;;;;;;;;;6265160;28;20884;-59
2022/07/30 16:47:10;;;;;;;26.47;19.57;;;;;;;;;;6266676;28;20542;-59
2022/07/30 16:50:11;;;;;;;27.60;20.60;;;;;;;;;;6266584;28;20086;-59
2022/07/30 16:53:12;;;;;;;29.97;20.90;;;;;;;;;;6264093;28;20044;-59
2022/07/30 16:56:13;;;;;;;33.37;23.73;;;;;;;;;;6266255;28;20305;-59
2022/07/30 16:59:16;;;;;;;;;;;;;;;;;;6264653;28;20059;-58
2022/07/30 17:02:16;;;;;;;34.65;25.23;;;;;;;;;;6264812;28;19931;-57
2022/07/30 17:05:17;;;;;;;35.37;25.97;;;;;;;;;;6266594;28;20045;-57
2022/07/30 17:08:18;;;;;;;39.97;26.90;;;;;;;;;;6260660;28;20106;-58
2022/07/30 17:11:18;;;;;;;36.35;25.95;;;;;;;;;;6267829;28;20075;-58
2022/07/30 17:14:21;;;;;;;35.67;25.83;;;;;;;;;;6267803;28;20075;-57
2022/07/30 17:17:21;;;;;;;32.85;24.33;;;;;;;;;;6265045;28;20688;-58
2022/07/30 17:20:22;;;;;;;32.60;23.87;;;;;;;;;;6261872;28;20049;-57
2022/07/30 17:23:23;;;;;;;31.50;23.30;;;;;;;;;;6260124;28;20381;-59
2022/07/30 17:26:23;;;;;;;26.73;20.63;;;;;;;;;;6261898;28;20655;-57
2022/07/30 17:29:24;;;;;;;29.67;22.43;;;;;;;;;;6263801;28;20053;-60
2022/07/30 17:32:24;;;;;;;30.10;20.93;;;;;;;;;;6260565;28;20049;-60
2022/07/30 17:35:25;;;;;;;25.70;20.50;;;;;;;;;;6270687;28;20053;-59
2022/07/30 17:38:27;;;;;;;22.27;17.23;;;;;;;;;;6260669;28;20067;-57
2022/07/30 17:41:28;;;;;;;;;;;;;;;;;;6261677;28;20078;-58
2022/07/30 17:44:28;;;;;;;18.70;14.57;;;;;;;;;;6263962;28;19940;-60
2022/07/30 17:47:29;;;;;;;16.53;13.43;;;;;;;;;;6263941;28;20049;-60
2022/07/30 17:50:31;;;;;;;16.87;13.67;;;;;;;;;;6262381;28;20114;-61
2022/07/30 17:53:31;;;;;;;16.25;12.73;;;;;;;;;;6261504;28;21247;-61
2022/07/30 17:56:32;;;;;;;12.60;9.97;;;;;;;;;;6264438;28;20049;-60
2022/07/30 17:59:32;;;;;;;13.43;10.90;;;;;;;;;;6260214;28;20056;-59
2022/07/30 18:02:33;;;;;;;13.53;9.53;;;;;;;;;;6264183;28;20068;-59